SKBO/BOG METAR and TAF weather

Enter ICAO airport designator
Station Type Date Time Source
SKBO METAR 2020/11/28 20:00 UTC NOAA

SKBO 282000Z 30007KT 5000 -TSRA SCT012CB SCT020 SCT070 14/14 A3025 NOSIG RMK CB/NE/SE/SW


Station Type Date Time Source
SKBO Decoded METAR 2020/11/28 20:00 UTC NOAA

Bogota / Eldorado, Colombia (SKBO) 04-43N 074-09W 2548M
Nov 28, 2020 - 03:00 PM EST / 2020.11.28 2000 UTC
Wind: from the WNW (300 degrees) at 8 MPH (7 KT):0
Visibility: 3 mile(s):0
Sky conditions: partly cloudy
Weather: light rain with thunder; Cumulonimbus clouds observed
Temperature: 57 F (14 C)
Dew Point: 57 F (14 C)
Relative Humidity: 100%
Pressure (altimeter): 30.25 in. Hg (1024 hPa)
ob: SKBO 282000Z 30007KT 5000 -TSRA SCT012CB SCT020 SCT070 14/14 A3025 NOSIG RMK CB/NE/SE/SW
cycle: 20

Station Type Date Time Source
SKBO TAF 2020/11/28 18:42 UTC NOAA

TAF TAF SKBO 281630Z 2818/2918 30010KT 9999 SCT020 BKN080
TEMPO 2818/2822 5000 TSRA FEW015CB BKN017
BECMG 2900/2902 VRB03KT FEW017 BKN070
TEMPO 2902/2904 DZRA SCT015 PROB40
TEMPO 2908/2912 3000 BR SCT010 TX20/2818Z TN11/2910Z

Example: see airport list